Terminal Aerodrome Forecast
Issued by NWS

Current Version | Previous Version | Text Only | Print | Product List | Glossary On
Versions: 1 2 3 4 5 6 7 8 9 10 11 12 13 14 15 16
000
FTUS41 KBTV 251731
TAFSLK
TAF
KSLK 251731Z 2518/2618 26010G20KT P6SM FEW090 SCT200
      TEMPO 2520/2524 -SHRA SCT050 BKN080
     FM260000 VRB03KT P6SM FEW090 SCT200
     FM260900 00000KT 3/4SM BR SCT200
     FM261200 VRB02KT P6SM FEW200
     FM261600 VRB04KT P6SM SCT060 SCT150=

USA.gov is the U.S. government's official web portal to all federal, state and local government web resources and services.